Terminal Aerodrome Forecast
Issued by NWS

Home | Current Version | Previous Version | Text Only | Print | Product List | Glossary On
Versions: 1 2 3 4 5 6 7 8 9 10 11 12 13 14 15 16 17 18 19
000
FTUS43 KICT 211145
TAFSLN
TAF
KSLN 211145Z 2112/2212 32004KT P6SM BKN300
     FM211500 01007KT P6SM SCT100 BKN300
     FM211800 06007KT P6SM SCT035 OVC130
     FM212100 11009KT P6SM SCT040 BKN100=

USA.gov is the U.S. government's official web portal to all federal, state and local government web resources and services.